KMLB/MLB METAR and TAF weather

Enter ICAO airport designator
Station Type Date Time Source
KMLB METAR 2021/05/14 05:53 UTC NOAA

KMLB 140553Z AUTO 31007KT 10SM SCT015 20/18 A3008 RMK AO2 SLP184 T02000178 10233 20200 58009


Station Type Date Time Source
KMLB Decoded METAR 2021/05/14 05:53 UTC NOAA

MELBOURNE INTERNATIONAL, FL, United States (KMLB) 28-06N 080-39W 10M
May 14, 2021 - 01:53 AM EDT / 2021.05.14 0553 UTC
Wind: from the NW (310 degrees) at 8 MPH (7 KT):0
Visibility: 10 mile(s):0
Sky conditions: partly cloudy
Temperature: 68.0 F (20.0 C)
Dew Point: 64.0 F (17.8 C)
Relative Humidity: 87%
Pressure (altimeter): 30.08 in. Hg (1018 hPa)
Pressure tendency: 0.03 inches (0.9 hPa) lower than three hours ago
ob: KMLB 140553Z AUTO 31007KT 10SM SCT015 20/18 A3008 RMK AO2 SLP184 T02000178 10233 20200 58009
cycle: 6

Station Type Date Time Source
KMLB TAF 2021/05/14 06:36 UTC NOAA

TAF KMLB 140533Z 1406/1506 33006KT P6SM SCT020 BKN200
FM141300 01011KT P6SM SCT030 BKN050
FM141600 03014G22KT P6SM SCT035 BKN050
FM142300 02012KT P6SM SCT040

Example: see airport list